Al-Wafra, Kuwait

8:53 AM AST on July 29, 2014 (GMT +0300)
Kuwait International (OKBK) Elev 180 ft | 29.22 °N, 47.98 °E | Change Station

Current weather conditions updated 53 minutes ago

Clear
Clear
99 °F
Feels Like 99 °F
N
12
Wind Variable Wind from West

Today is forecast to be nearly the same temperature as yesterday.

Today
High -- | Low -- °F
--% Chance of Precip.
Yesterday
High -- | Low -- °F
Precip. -- in
5:07 AM 6:40 PM
Waxing Crescent, 5% visible
Pressure 29.47 in
Visibility -9999.0 miles
Clouds
Dew Point 50 °F
Humidity 19%
Rainfall 0.00 in
Snow Depth Not available.
UV Not available.
Pollen Not available.
Air Quality Not available.
Flu Activity Not available.
METAR OKBK 290500Z 28010KT CAVOK 37/10 Q0998 NOSIG

More Conditions Fewer Conditions

Pressure 29.47 in
Visibility -9999.0 miles
Clouds
Dew Point 50 °F
Humidity 19%
Rainfall 0.00 in
Snow Depth Not available.
UV Not available.
Pollen Not available.
Air Quality Not available.
Flu Activity Not available.
METAR OKBK 290500Z 28010KT CAVOK 37/10 Q0998 NOSIG

More Conditions Fewer Conditions

10-Day Weather Forecast

Almanac

Astronomy

Jul. 29, 2014 Rise Set
Actual Time 5:07 AM AST 6:40 PM AST
Civil Twilight 4:41 AM AST 7:06 PM AST
Nautical Twilight 4:10 AM AST 7:36 PM AST
Astronomical Twilight 3:38 AM AST 8:09 PM AST
Moon 7:07 AM AST 7:58 PM AST
Length of Visible Light 14h 24m
Length of Day
13h 33m
Tomorrow will be 1m 11s shorter.
Waxing Crescent, 5% of the Moon is Illuminated
Today
Waxing Crescent
Aug 3
First Quarter
Aug 10
Full
Aug 17
Last Quarter
Aug 25
New

Yesterday's Extremes

Country Highs Country Lows

Community

WunderPhotos

Upload Photos

1,738,641 photos uploaded!

Nearby

Snow Depth

Not available.

Earthquake Activity

City Distance Mag. Time & Date
No recent earthquake activity has been reported nearby.
Minimum magnitude displayed is 2.5.

Coastal Water Temperatures

Place Temperature
No Stations Reporting

Nearby Weather Stations

There are no personal weather stations in this area.